sensor_id;sensor_type;location;lat;lon;timestamp;P1;durP1;ratioP1;P2;durP2;ratioP2
78288;SDS011;67539;48.752;12.922;2024-01-06T00:01:21;16.75;;;15.10;;
78288;SDS011;67539;48.752;12.922;2024-01-06T00:03:49;18.02;;;16.10;;
78288;SDS011;67539;48.752;12.922;2024-01-06T00:06:18;18.92;;;16.95;;
78288;SDS011;67539;48.752;12.922;2024-01-06T00:08:46;17.77;;;15.95;;
78288;SDS011;67539;48.752;12.922;2024-01-06T00:11:20;17.80;;;15.82;;
78288;SDS011;67539;48.752;12.922;2024-01-06T00:13:48;17.38;;;15.52;;
78288;SDS011;67539;48.752;12.922;2024-01-06T00:16:18;19.27;;;15.38;;
78288;SDS011;67539;48.752;12.922;2024-01-06T00:18:46;19.00;;;16.70;;
78288;SDS011;67539;48.752;12.922;2024-01-06T00:21:15;17.20;;;15.25;;
78288;SDS011;67539;48.752;12.922;2024-01-06T00:23:43;20.50;;;16.67;;
78288;SDS011;67539;48.752;12.922;2024-01-06T00:26:12;17.23;;;15.43;;
78288;SDS011;67539;48.752;12.922;2024-01-06T00:28:40;18.40;;;16.05;;
78288;SDS011;67539;48.752;12.922;2024-01-06T00:31:08;19.67;;;17.08;;
78288;SDS011;67539;48.752;12.922;2024-01-06T00:33:38;17.25;;;15.45;;
78288;SDS011;67539;48.752;12.922;2024-01-06T00:36:06;16.20;;;14.60;;
78288;SDS011;67539;48.752;12.922;2024-01-06T00:38:35;17.73;;;15.95;;
78288;SDS011;67539;48.752;12.922;2024-01-06T00:41:03;17.50;;;15.70;;
78288;SDS011;67539;48.752;12.922;2024-01-06T00:43:31;18.50;;;16.67;;
78288;SDS011;67539;48.752;12.922;2024-01-06T00:45:59;17.20;;;15.50;;
78288;SDS011;67539;48.752;12.922;2024-01-06T00:48:28;16.20;;;14.50;;
78288;SDS011;67539;48.752;12.922;2024-01-06T00:50:57;18.33;;;16.10;;
78288;SDS011;67539;48.752;12.922;2024-01-06T00:53:26;17.00;;;15.32;;
78288;SDS011;67539;48.752;12.922;2024-01-06T00:55:54;16.48;;;14.23;;
78288;SDS011;67539;48.752;12.922;2024-01-06T00:58:22;18.00;;;14.57;;
78288;SDS011;67539;48.752;12.922;2024-01-06T01:00:50;17.17;;;15.35;;
78288;SDS011;67539;48.752;12.922;2024-01-06T01:03:18;18.13;;;16.23;;
78288;SDS011;67539;48.752;12.922;2024-01-06T01:05:46;18.27;;;16.48;;
78288;SDS011;67539;48.752;12.922;2024-01-06T01:08:16;18.17;;;16.00;;
78288;SDS011;67539;48.752;12.922;2024-01-06T01:10:44;17.90;;;15.85;;
78288;SDS011;67539;48.752;12.922;2024-01-06T01:13:12;21.50;;;16.70;;
78288;SDS011;67539;48.752;12.922;2024-01-06T01:15:40;18.55;;;15.30;;
78288;SDS011;67539;48.752;12.922;2024-01-06T01:18:09;19.75;;;16.35;;
78288;SDS011;67539;48.752;12.922;2024-01-06T01:20:37;17.10;;;15.32;;
78288;SDS011;67539;48.752;12.922;2024-01-06T01:23:06;18.13;;;15.50;;
78288;SDS011;67539;48.752;12.922;2024-01-06T01:25:35;17.13;;;15.35;;
78288;SDS011;67539;48.752;12.922;2024-01-06T01:28:04;17.73;;;14.73;;
78288;SDS011;67539;48.752;12.922;2024-01-06T01:30:32;19.30;;;15.90;;
78288;SDS011;67539;48.752;12.922;2024-01-06T01:33:00;18.50;;;15.10;;
78288;SDS011;67539;48.752;12.922;2024-01-06T01:35:28;17.50;;;15.73;;
78288;SDS011;67539;48.752;12.922;2024-01-06T01:37:57;18.30;;;16.40;;
78288;SDS011;67539;48.752;12.922;2024-01-06T01:40:25;18.70;;;16.23;;
78288;SDS011;67539;48.752;12.922;2024-01-06T01:42:54;17.23;;;15.52;;
78288;SDS011;67539;48.752;12.922;2024-01-06T01:45:22;18.05;;;16.15;;
78288;SDS011;67539;48.752;12.922;2024-01-06T01:47:50;19.05;;;16.05;;
78288;SDS011;67539;48.752;12.922;2024-01-06T01:50:19;16.83;;;15.20;;
78288;SDS011;67539;48.752;12.922;2024-01-06T01:52:48;18.42;;;16.52;;
78288;SDS011;67539;48.752;12.922;2024-01-06T01:55:16;17.35;;;15.55;;
78288;SDS011;67539;48.752;12.922;2024-01-06T01:57:45;17.98;;;15.88;;
78288;SDS011;67539;48.752;12.922;2024-01-06T02:00:15;17.00;;;15.32;;
78288;SDS011;67539;48.752;12.922;2024-01-06T02:02:43;17.50;;;15.65;;
78288;SDS011;67539;48.752;12.922;2024-01-06T02:05:11;17.73;;;15.80;;
78288;SDS011;67539;48.752;12.922;2024-01-06T02:07:40;17.63;;;15.82;;
78288;SDS011;67539;48.752;12.922;2024-01-06T02:10:08;18.17;;;16.40;;
78288;SDS011;67539;48.752;12.922;2024-01-06T02:12:36;18.13;;;16.25;;
78288;SDS011;67539;48.752;12.922;2024-01-06T02:15:05;19.55;;;17.55;;
78288;SDS011;67539;48.752;12.922;2024-01-06T02:17:35;17.67;;;15.80;;
78288;SDS011;67539;48.752;12.922;2024-01-06T02:20:03;20.90;;;16.83;;
78288;SDS011;67539;48.752;12.922;2024-01-06T02:22:34;17.77;;;15.98;;
78288;SDS011;67539;48.752;12.922;2024-01-06T02:25:04;18.10;;;16.20;;
78288;SDS011;67539;48.752;12.922;2024-01-06T02:27:39;18.40;;;16.40;;
78288;SDS011;67539;48.752;12.922;2024-01-06T02:30:07;18.30;;;16.00;;
78288;SDS011;67539;48.752;12.922;2024-01-06T02:32:36;16.27;;;14.68;;
78288;SDS011;67539;48.752;12.922;2024-01-06T02:35:05;18.35;;;14.85;;
78288;SDS011;67539;48.752;12.922;2024-01-06T02:37:35;16.77;;;15.07;;
78288;SDS011;67539;48.752;12.922;2024-01-06T02:40:03;17.23;;;15.50;;
78288;SDS011;67539;48.752;12.922;2024-01-06T02:42:32;19.55;;;17.58;;
78288;SDS011;67539;48.752;12.922;2024-01-06T02:45:00;17.77;;;16.00;;
78288;SDS011;67539;48.752;12.922;2024-01-06T02:47:28;19.05;;;17.13;;
78288;SDS011;67539;48.752;12.922;2024-01-06T02:49:57;18.60;;;16.60;;
78288;SDS011;67539;48.752;12.922;2024-01-06T02:52:25;18.45;;;16.67;;
78288;SDS011;67539;48.752;12.922;2024-01-06T02:54:54;19.08;;;17.17;;
78288;SDS011;67539;48.752;12.922;2024-01-06T02:57:23;20.63;;;18.55;;
78288;SDS011;67539;48.752;12.922;2024-01-06T02:59:51;19.35;;;17.30;;
78288;SDS011;67539;48.752;12.922;2024-01-06T03:02:18;21.17;;;17.05;;
78288;SDS011;67539;48.752;12.922;2024-01-06T03:04:46;22.73;;;19.67;;
78288;SDS011;67539;48.752;12.922;2024-01-06T03:07:14;22.35;;;20.05;;
78288;SDS011;67539;48.752;12.922;2024-01-06T03:09:42;23.40;;;20.42;;
78288;SDS011;67539;48.752;12.922;2024-01-06T03:12:12;23.92;;;20.63;;
78288;SDS011;67539;48.752;12.922;2024-01-06T03:14:40;22.48;;;20.08;;
78288;SDS011;67539;48.752;12.922;2024-01-06T03:17:09;23.02;;;18.90;;
78288;SDS011;67539;48.752;12.922;2024-01-06T03:19:38;21.92;;;19.65;;
78288;SDS011;67539;48.752;12.922;2024-01-06T03:22:06;21.00;;;18.80;;
78288;SDS011;67539;48.752;12.922;2024-01-06T03:24:35;21.00;;;18.88;;
78288;SDS011;67539;48.752;12.922;2024-01-06T03:27:03;21.80;;;19.48;;
78288;SDS011;67539;48.752;12.922;2024-01-06T03:29:33;22.15;;;19.63;;
78288;SDS011;67539;48.752;12.922;2024-01-06T03:32:01;23.13;;;20.60;;
78288;SDS011;67539;48.752;12.922;2024-01-06T03:34:29;23.83;;;20.52;;
78288;SDS011;67539;48.752;12.922;2024-01-06T03:36:57;24.33;;;21.42;;
78288;SDS011;67539;48.752;12.922;2024-01-06T03:39:25;23.27;;;20.77;;
78288;SDS011;67539;48.752;12.922;2024-01-06T03:41:54;21.88;;;19.58;;
78288;SDS011;67539;48.752;12.922;2024-01-06T03:44:22;22.02;;;19.40;;
78288;SDS011;67539;48.752;12.922;2024-01-06T03:46:51;22.58;;;19.92;;
78288;SDS011;67539;48.752;12.922;2024-01-06T03:49:19;24.52;;;20.40;;
78288;SDS011;67539;48.752;12.922;2024-01-06T03:51:48;22.63;;;20.08;;
78288;SDS011;67539;48.752;12.922;2024-01-06T03:54:16;22.63;;;20.27;;
78288;SDS011;67539;48.752;12.922;2024-01-06T03:56:44;23.65;;;20.00;;
78288;SDS011;67539;48.752;12.922;2024-01-06T03:59:12;21.73;;;19.42;;
78288;SDS011;67539;48.752;12.922;2024-01-06T04:01:40;21.33;;;19.23;;
78288;SDS011;67539;48.752;12.922;2024-01-06T04:04:10;22.70;;;20.42;;
78288;SDS011;67539;48.752;12.922;2024-01-06T04:06:38;24.83;;;21.00;;
78288;SDS011;67539;48.752;12.922;2024-01-06T04:09:06;23.73;;;21.05;;
78288;SDS011;67539;48.752;12.922;2024-01-06T04:11:35;22.52;;;19.98;;
78288;SDS011;67539;48.752;12.922;2024-01-06T04:14:04;21.13;;;18.77;;
78288;SDS011;67539;48.752;12.922;2024-01-06T04:16:32;23.33;;;20.33;;
78288;SDS011;67539;48.752;12.922;2024-01-06T04:19:00;24.42;;;21.63;;
78288;SDS011;67539;48.752;12.922;2024-01-06T04:21:30;23.17;;;19.80;;
78288;SDS011;67539;48.752;12.922;2024-01-06T04:23:58;23.35;;;20.27;;
78288;SDS011;67539;48.752;12.922;2024-01-06T04:26:26;23.63;;;20.83;;
78288;SDS011;67539;48.752;12.922;2024-01-06T04:28:54;23.95;;;19.95;;
78288;SDS011;67539;48.752;12.922;2024-01-06T04:31:22;25.45;;;19.63;;
78288;SDS011;67539;48.752;12.922;2024-01-06T04:33:50;26.48;;;21.30;;
78288;SDS011;67539;48.752;12.922;2024-01-06T04:36:19;23.50;;;20.90;;
78288;SDS011;67539;48.752;12.922;2024-01-06T04:38:48;22.98;;;20.25;;
78288;SDS011;67539;48.752;12.922;2024-01-06T04:41:17;26.40;;;22.15;;
78288;SDS011;67539;48.752;12.922;2024-01-06T04:43:45;23.80;;;21.17;;
78288;SDS011;67539;48.752;12.922;2024-01-06T04:46:13;29.23;;;23.60;;
78288;SDS011;67539;48.752;12.922;2024-01-06T04:48:41;28.42;;;22.98;;
78288;SDS011;67539;48.752;12.922;2024-01-06T04:51:11;27.02;;;22.27;;
78288;SDS011;67539;48.752;12.922;2024-01-06T04:53:39;26.35;;;21.88;;
78288;SDS011;67539;48.752;12.922;2024-01-06T04:56:09;28.52;;;23.73;;
78288;SDS011;67539;48.752;12.922;2024-01-06T04:58:37;25.02;;;21.60;;
78288;SDS011;67539;48.752;12.922;2024-01-06T05:01:05;24.70;;;21.70;;
78288;SDS011;67539;48.752;12.922;2024-01-06T05:03:34;24.33;;;21.13;;
78288;SDS011;67539;48.752;12.922;2024-01-06T05:06:03;23.98;;;19.67;;
78288;SDS011;67539;48.752;12.922;2024-01-06T05:08:31;26.02;;;20.95;;
78288;SDS011;67539;48.752;12.922;2024-01-06T05:10:59;24.20;;;20.85;;
78288;SDS011;67539;48.752;12.922;2024-01-06T05:13:29;20.65;;;18.55;;
78288;SDS011;67539;48.752;12.922;2024-01-06T05:15:57;23.63;;;19.48;;
78288;SDS011;67539;48.752;12.922;2024-01-06T05:18:25;22.25;;;19.50;;
78288;SDS011;67539;48.752;12.922;2024-01-06T05:20:54;20.23;;;17.90;;
78288;SDS011;67539;48.752;12.922;2024-01-06T05:23:22;21.13;;;18.13;;
78288;SDS011;67539;48.752;12.922;2024-01-06T05:25:51;21.13;;;18.63;;
78288;SDS011;67539;48.752;12.922;2024-01-06T05:28:19;20.40;;;17.75;;
78288;SDS011;67539;48.752;12.922;2024-01-06T05:30:48;20.10;;;17.98;;
78288;SDS011;67539;48.752;12.922;2024-01-06T05:33:17;23.10;;;19.23;;
78288;SDS011;67539;48.752;12.922;2024-01-06T05:35:45;21.55;;;18.15;;
78288;SDS011;67539;48.752;12.922;2024-01-06T05:38:13;21.15;;;17.45;;
78288;SDS011;67539;48.752;12.922;2024-01-06T05:40:43;21.77;;;18.17;;
78288;SDS011;67539;48.752;12.922;2024-01-06T05:43:11;22.83;;;18.70;;
78288;SDS011;67539;48.752;12.922;2024-01-06T05:45:39;20.98;;;18.80;;
78288;SDS011;67539;48.752;12.922;2024-01-06T05:48:10;25.58;;;19.80;;
78288;SDS011;67539;48.752;12.922;2024-01-06T05:50:38;21.38;;;18.67;;
78288;SDS011;67539;48.752;12.922;2024-01-06T05:53:07;22.65;;;20.17;;
78288;SDS011;67539;48.752;12.922;2024-01-06T05:55:35;22.38;;;19.00;;
78288;SDS011;67539;48.752;12.922;2024-01-06T05:58:04;24.10;;;19.90;;
78288;SDS011;67539;48.752;12.922;2024-01-06T06:00:32;21.02;;;18.40;;
78288;SDS011;67539;48.752;12.922;2024-01-06T06:03:00;26.30;;;20.30;;
78288;SDS011;67539;48.752;12.922;2024-01-06T06:05:30;21.83;;;19.52;;
78288;SDS011;67539;48.752;12.922;2024-01-06T06:07:58;23.65;;;20.02;;
78288;SDS011;67539;48.752;12.922;2024-01-06T06:10:26;22.10;;;19.50;;
78288;SDS011;67539;48.752;12.922;2024-01-06T06:13:07;22.55;;;19.92;;
78288;SDS011;67539;48.752;12.922;2024-01-06T06:15:37;22.23;;;18.02;;
78288;SDS011;67539;48.752;12.922;2024-01-06T06:18:05;22.13;;;19.45;;
78288;SDS011;67539;48.752;12.922;2024-01-06T06:20:35;25.38;;;21.02;;
78288;SDS011;67539;48.752;12.922;2024-01-06T06:23:03;24.25;;;18.92;;
78288;SDS011;67539;48.752;12.922;2024-01-06T06:25:31;26.60;;;21.33;;
78288;SDS011;67539;48.752;12.922;2024-01-06T06:28:00;28.45;;;22.50;;
78288;SDS011;67539;48.752;12.922;2024-01-06T06:30:30;23.88;;;20.20;;
78288;SDS011;67539;48.752;12.922;2024-01-06T06:32:58;23.45;;;19.98;;
78288;SDS011;67539;48.752;12.922;2024-01-06T06:35:29;24.80;;;20.88;;
78288;SDS011;67539;48.752;12.922;2024-01-06T06:37:58;23.02;;;20.08;;
78288;SDS011;67539;48.752;12.922;2024-01-06T06:40:26;26.15;;;21.50;;
78288;SDS011;67539;48.752;12.922;2024-01-06T06:42:55;25.35;;;21.50;;
78288;SDS011;67539;48.752;12.922;2024-01-06T06:45:23;27.38;;;21.63;;
78288;SDS011;67539;48.752;12.922;2024-01-06T06:47:51;27.05;;;22.20;;
78288;SDS011;67539;48.752;12.922;2024-01-06T06:50:19;27.20;;;21.63;;
78288;SDS011;67539;48.752;12.922;2024-01-06T06:52:48;25.88;;;21.25;;
78288;SDS011;67539;48.752;12.922;2024-01-06T06:55:18;25.52;;;20.38;;
78288;SDS011;67539;48.752;12.922;2024-01-06T06:57:46;26.70;;;19.95;;
78288;SDS011;67539;48.752;12.922;2024-01-06T07:00:15;22.95;;;20.35;;
78288;SDS011;67539;48.752;12.922;2024-01-06T07:02:44;23.70;;;19.40;;
78288;SDS011;67539;48.752;12.922;2024-01-06T07:05:12;22.65;;;18.92;;
78288;SDS011;67539;48.752;12.922;2024-01-06T07:07:40;23.52;;;19.45;;
78288;SDS011;67539;48.752;12.922;2024-01-06T07:10:11;23.15;;;19.13;;
78288;SDS011;67539;48.752;12.922;2024-01-06T07:12:40;28.98;;;22.05;;
78288;SDS011;67539;48.752;12.922;2024-01-06T07:15:09;23.05;;;19.60;;
78288;SDS011;67539;48.752;12.922;2024-01-06T07:17:38;23.20;;;19.15;;
78288;SDS011;67539;48.752;12.922;2024-01-06T07:20:08;24.23;;;21.33;;
78288;SDS011;67539;48.752;12.922;2024-01-06T07:22:36;26.60;;;22.35;;
78288;SDS011;67539;48.752;12.922;2024-01-06T07:25:04;26.20;;;22.02;;
78288;SDS011;67539;48.752;12.922;2024-01-06T07:27:33;30.45;;;23.92;;
78288;SDS011;67539;48.752;12.922;2024-01-06T07:30:04;26.45;;;21.73;;
78288;SDS011;67539;48.752;12.922;2024-01-06T07:32:34;28.60;;;23.15;;
78288;SDS011;67539;48.752;12.922;2024-01-06T07:35:02;30.55;;;23.63;;
78288;SDS011;67539;48.752;12.922;2024-01-06T07:37:33;28.95;;;20.65;;
78288;SDS011;67539;48.752;12.922;2024-01-06T07:40:01;30.17;;;23.52;;
78288;SDS011;67539;48.752;12.922;2024-01-06T07:42:30;31.20;;;24.40;;
78288;SDS011;67539;48.752;12.922;2024-01-06T07:44:58;30.60;;;25.40;;
78288;SDS011;67539;48.752;12.922;2024-01-06T07:47:28;29.42;;;24.35;;
78288;SDS011;67539;48.752;12.922;2024-01-06T07:49:56;35.28;;;27.08;;
78288;SDS011;67539;48.752;12.922;2024-01-06T07:52:24;30.52;;;25.38;;
78288;SDS011;67539;48.752;12.922;2024-01-06T07:54:53;31.60;;;26.30;;
78288;SDS011;67539;48.752;12.922;2024-01-06T07:57:21;34.13;;;27.52;;
78288;SDS011;67539;48.752;12.922;2024-01-06T07:59:50;53.90;;;45.20;;
78288;SDS011;67539;48.752;12.922;2024-01-06T08:02:18;30.58;;;26.30;;
78288;SDS011;67539;48.752;12.922;2024-01-06T08:04:47;33.78;;;27.20;;
78288;SDS011;67539;48.752;12.922;2024-01-06T08:07:15;36.33;;;28.20;;
78288;SDS011;67539;48.752;12.922;2024-01-06T08:09:43;36.58;;;31.10;;
78288;SDS011;67539;48.752;12.922;2024-01-06T08:12:12;32.45;;;25.58;;
78288;SDS011;67539;48.752;12.922;2024-01-06T08:14:40;29.50;;;23.25;;
78288;SDS011;67539;48.752;12.922;2024-01-06T08:17:08;31.30;;;24.95;;
78288;SDS011;67539;48.752;12.922;2024-01-06T08:19:36;31.85;;;25.98;;
78288;SDS011;67539;48.752;12.922;2024-01-06T08:22:06;31.08;;;23.45;;
78288;SDS011;67539;48.752;12.922;2024-01-06T08:24:34;32.38;;;24.30;;
78288;SDS011;67539;48.752;12.922;2024-01-06T08:27:02;31.08;;;23.77;;
78288;SDS011;67539;48.752;12.922;2024-01-06T08:29:31;31.25;;;25.02;;
78288;SDS011;67539;48.752;12.922;2024-01-06T08:31:59;32.50;;;27.38;;
78288;SDS011;67539;48.752;12.922;2024-01-06T08:34:27;27.80;;;22.75;;
78288;SDS011;67539;48.752;12.922;2024-01-06T08:36:58;27.90;;;22.77;;
78288;SDS011;67539;48.752;12.922;2024-01-06T08:39:28;28.65;;;22.05;;
78288;SDS011;67539;48.752;12.922;2024-01-06T08:41:56;29.35;;;22.50;;
78288;SDS011;67539;48.752;12.922;2024-01-06T08:44:27;26.75;;;22.40;;
78288;SDS011;67539;48.752;12.922;2024-01-06T08:46:55;29.05;;;22.23;;
78288;SDS011;67539;48.752;12.922;2024-01-06T08:49:24;24.73;;;19.92;;
78288;SDS011;67539;48.752;12.922;2024-01-06T08:51:52;26.85;;;19.95;;
78288;SDS011;67539;48.752;12.922;2024-01-06T08:54:21;25.92;;;21.27;;
78288;SDS011;67539;48.752;12.922;2024-01-06T08:56:50;27.73;;;22.27;;
78288;SDS011;67539;48.752;12.922;2024-01-06T08:59:18;29.88;;;23.17;;
78288;SDS011;67539;48.752;12.922;2024-01-06T09:01:47;25.42;;;21.75;;
78288;SDS011;67539;48.752;12.922;2024-01-06T09:04:16;23.67;;;19.13;;
78288;SDS011;67539;48.752;12.922;2024-01-06T09:06:44;27.42;;;20.88;;
78288;SDS011;67539;48.752;12.922;2024-01-06T09:09:13;28.58;;;23.08;;
78288;SDS011;67539;48.752;12.922;2024-01-06T09:11:41;23.70;;;20.13;;
78288;SDS011;67539;48.752;12.922;2024-01-06T09:14:12;28.20;;;22.35;;
78288;SDS011;67539;48.752;12.922;2024-01-06T09:16:40;26.60;;;21.67;;
78288;SDS011;67539;48.752;12.922;2024-01-06T09:19:08;22.50;;;19.25;;
78288;SDS011;67539;48.752;12.922;2024-01-06T09:21:36;26.05;;;21.00;;
78288;SDS011;67539;48.752;12.922;2024-01-06T09:24:04;25.33;;;20.23;;
78288;SDS011;67539;48.752;12.922;2024-01-06T09:26:33;28.38;;;20.30;;
78288;SDS011;67539;48.752;12.922;2024-01-06T09:29:02;25.45;;;20.67;;
78288;SDS011;67539;48.752;12.922;2024-01-06T09:31:31;27.77;;;20.38;;
78288;SDS011;67539;48.752;12.922;2024-01-06T09:34:00;25.60;;;18.67;;
78288;SDS011;67539;48.752;12.922;2024-01-06T09:36:30;22.08;;;19.73;;
78288;SDS011;67539;48.752;12.922;2024-01-06T09:38:59;23.45;;;19.77;;
78288;SDS011;67539;48.752;12.922;2024-01-06T09:41:28;25.98;;;22.02;;
78288;SDS011;67539;48.752;12.922;2024-01-06T09:43:56;23.48;;;20.42;;
78288;SDS011;67539;48.752;12.922;2024-01-06T09:46:24;23.20;;;19.67;;
78288;SDS011;67539;48.752;12.922;2024-01-06T09:48:55;26.98;;;21.95;;
78288;SDS011;67539;48.752;12.922;2024-01-06T09:51:25;25.88;;;21.95;;
78288;SDS011;67539;48.752;12.922;2024-01-06T09:53:56;21.75;;;18.95;;
78288;SDS011;67539;48.752;12.922;2024-01-06T09:56:26;21.27;;;18.73;;
78288;SDS011;67539;48.752;12.922;2024-01-06T09:58:57;25.38;;;22.65;;
78288;SDS011;67539;48.752;12.922;2024-01-06T10:01:25;23.70;;;20.42;;
78288;SDS011;67539;48.752;12.922;2024-01-06T10:03:55;38.42;;;34.33;;
78288;SDS011;67539;48.752;12.922;2024-01-06T10:06:24;30.33;;;25.83;;
78288;SDS011;67539;48.752;12.922;2024-01-06T10:08:52;44.50;;;39.75;;
78288;SDS011;67539;48.752;12.922;2024-01-06T10:11:22;29.83;;;24.65;;
78288;SDS011;67539;48.752;12.922;2024-01-06T10:13:50;28.83;;;25.83;;
78288;SDS011;67539;48.752;12.922;2024-01-06T10:16:19;22.27;;;19.33;;
78288;SDS011;67539;48.752;12.922;2024-01-06T10:18:48;22.27;;;19.45;;
78288;SDS011;67539;48.752;12.922;2024-01-06T10:21:21;22.17;;;17.58;;
78288;SDS011;67539;48.752;12.922;2024-01-06T10:23:49;20.27;;;17.27;;
78288;SDS011;67539;48.752;12.922;2024-01-06T10:26:18;22.85;;;17.42;;
78288;SDS011;67539;48.752;12.922;2024-01-06T10:28:47;22.60;;;19.90;;
78288;SDS011;67539;48.752;12.922;2024-01-06T10:31:16;20.48;;;16.88;;
78288;SDS011;67539;48.752;12.922;2024-01-06T10:33:45;19.20;;;17.20;;
78288;SDS011;67539;48.752;12.922;2024-01-06T10:36:15;20.63;;;16.98;;
78288;SDS011;67539;48.752;12.922;2024-01-06T10:38:45;19.42;;;17.50;;
78288;SDS011;67539;48.752;12.922;2024-01-06T10:41:13;23.90;;;17.55;;
78288;SDS011;67539;48.752;12.922;2024-01-06T10:43:43;17.98;;;15.82;;
78288;SDS011;67539;48.752;12.922;2024-01-06T10:46:13;20.67;;;16.15;;
78288;SDS011;67539;48.752;12.922;2024-01-06T10:48:43;20.23;;;17.15;;
78288;SDS011;67539;48.752;12.922;2024-01-06T10:51:13;21.98;;;18.73;;
78288;SDS011;67539;48.752;12.922;2024-01-06T10:53:42;19.35;;;15.95;;
78288;SDS011;67539;48.752;12.922;2024-01-06T10:56:12;21.30;;;17.55;;
78288;SDS011;67539;48.752;12.922;2024-01-06T10:58:42;20.83;;;16.45;;
78288;SDS011;67539;48.752;12.922;2024-01-06T11:01:14;22.02;;;18.70;;
78288;SDS011;67539;48.752;12.922;2024-01-06T11:03:50;20.45;;;18.23;;
78288;SDS011;67539;48.752;12.922;2024-01-06T11:06:18;20.48;;;17.40;;
78288;SDS011;67539;48.752;12.922;2024-01-06T11:08:48;19.90;;;16.38;;
78288;SDS011;67539;48.752;12.922;2024-01-06T11:11:20;21.25;;;18.58;;
78288;SDS011;67539;48.752;12.922;2024-01-06T11:13:50;21.15;;;17.10;;
78288;SDS011;67539;48.752;12.922;2024-01-06T11:16:33;20.95;;;18.25;;
78288;SDS011;67539;48.752;12.922;2024-01-06T11:19:03;21.00;;;15.57;;
78288;SDS011;67539;48.752;12.922;2024-01-06T11:24:51;20.95;;;16.80;;
78288;SDS011;67539;48.752;12.922;2024-01-06T11:27:22;18.63;;;15.43;;
78288;SDS011;67539;48.752;12.922;2024-01-06T11:29:53;19.35;;;15.35;;
78288;SDS011;67539;48.752;12.922;2024-01-06T11:32:25;18.38;;;15.65;;
78288;SDS011;67539;48.752;12.922;2024-01-06T11:35:04;21.42;;;16.08;;
78288;SDS011;67539;48.752;12.922;2024-01-06T11:37:35;19.35;;;15.65;;
78288;SDS011;67539;48.752;12.922;2024-01-06T11:40:08;15.80;;;13.77;;
78288;SDS011;67539;48.752;12.922;2024-01-06T11:42:42;16.80;;;14.20;;
78288;SDS011;67539;48.752;12.922;2024-01-06T11:45:10;17.80;;;15.07;;
78288;SDS011;67539;48.752;12.922;2024-01-06T11:47:40;17.83;;;12.88;;
78288;SDS011;67539;48.752;12.922;2024-01-06T11:50:15;15.75;;;14.10;;
78288;SDS011;67539;48.752;12.922;2024-01-06T11:52:42;18.30;;;14.35;;
78288;SDS011;67539;48.752;12.922;2024-01-06T11:55:10;19.60;;;14.82;;
78288;SDS011;67539;48.752;12.922;2024-01-06T11:57:39;18.90;;;14.63;;
78288;SDS011;67539;48.752;12.922;2024-01-06T12:00:09;20.30;;;14.30;;
78288;SDS011;67539;48.752;12.922;2024-01-06T12:02:40;18.67;;;14.35;;
78288;SDS011;67539;48.752;12.922;2024-01-06T12:05:12;18.42;;;13.73;;
78288;SDS011;67539;48.752;12.922;2024-01-06T12:07:41;15.15;;;12.77;;
78288;SDS011;67539;48.752;12.922;2024-01-06T12:10:09;18.63;;;12.43;;
78288;SDS011;67539;48.752;12.922;2024-01-06T12:12:38;17.10;;;14.23;;
78288;SDS011;67539;48.752;12.922;2024-01-06T12:15:06;14.18;;;12.55;;
78288;SDS011;67539;48.752;12.922;2024-01-06T12:17:38;16.73;;;14.15;;
78288;SDS011;67539;48.752;12.922;2024-01-06T12:20:08;16.88;;;14.10;;
78288;SDS011;67539;48.752;12.922;2024-01-06T12:22:38;20.83;;;14.93;;
78288;SDS011;67539;48.752;12.922;2024-01-06T12:25:07;17.50;;;15.10;;
78288;SDS011;67539;48.752;12.922;2024-01-06T12:27:41;18.25;;;12.50;;
78288;SDS011;67539;48.752;12.922;2024-01-06T12:30:13;17.00;;;14.60;;
78288;SDS011;67539;48.752;12.922;2024-01-06T12:32:45;19.67;;;13.18;;
78288;SDS011;67539;48.752;12.922;2024-01-06T12:35:16;15.82;;;13.30;;
78288;SDS011;67539;48.752;12.922;2024-01-06T12:37:44;17.02;;;12.63;;
78288;SDS011;67539;48.752;12.922;2024-01-06T12:40:13;13.57;;;11.52;;
78288;SDS011;67539;48.752;12.922;2024-01-06T12:42:44;18.42;;;12.98;;
78288;SDS011;67539;48.752;12.922;2024-01-06T12:45:14;12.50;;;10.38;;
78288;SDS011;67539;48.752;12.922;2024-01-06T12:47:43;12.30;;;11.00;;
78288;SDS011;67539;48.752;12.922;2024-01-06T12:50:12;15.95;;;12.70;;
78288;SDS011;67539;48.752;12.922;2024-01-06T12:52:41;17.65;;;11.75;;
78288;SDS011;67539;48.752;12.922;2024-01-06T12:55:09;14.25;;;11.15;;
78288;SDS011;67539;48.752;12.922;2024-01-06T12:57:37;14.45;;;11.13;;
78288;SDS011;67539;48.752;12.922;2024-01-06T13:00:05;13.48;;;11.55;;
78288;SDS011;67539;48.752;12.922;2024-01-06T13:02:38;13.25;;;10.13;;
78288;SDS011;67539;48.752;12.922;2024-01-06T13:05:07;15.63;;;11.93;;
78288;SDS011;67539;48.752;12.922;2024-01-06T13:07:36;16.25;;;12.20;;
78288;SDS011;67539;48.752;12.922;2024-01-06T13:10:05;13.15;;;10.52;;
78288;SDS011;67539;48.752;12.922;2024-01-06T13:12:33;15.43;;;11.95;;
78288;SDS011;67539;48.752;12.922;2024-01-06T13:15:02;14.90;;;10.68;;
78288;SDS011;67539;48.752;12.922;2024-01-06T13:17:30;13.23;;;10.18;;
78288;SDS011;67539;48.752;12.922;2024-01-06T13:20:00;15.27;;;10.63;;
78288;SDS011;67539;48.752;12.922;2024-01-06T13:22:28;13.00;;;11.20;;
78288;SDS011;67539;48.752;12.922;2024-01-06T13:24:56;14.52;;;11.18;;
78288;SDS011;67539;48.752;12.922;2024-01-06T13:27:25;13.70;;;11.43;;
78288;SDS011;67539;48.752;12.922;2024-01-06T13:29:54;11.43;;;10.23;;
78288;SDS011;67539;48.752;12.922;2024-01-06T13:32:22;13.57;;;11.38;;
78288;SDS011;67539;48.752;12.922;2024-01-06T13:34:53;13.13;;;9.43;;
78288;SDS011;67539;48.752;12.922;2024-01-06T13:37:29;15.35;;;10.48;;
78288;SDS011;67539;48.752;12.922;2024-01-06T13:39:58;15.10;;;10.93;;
78288;SDS011;67539;48.752;12.922;2024-01-06T13:42:26;13.13;;;11.02;;
78288;SDS011;67539;48.752;12.922;2024-01-06T13:44:55;14.57;;;10.80;;
78288;SDS011;67539;48.752;12.922;2024-01-06T13:47:26;13.63;;;11.95;;
78288;SDS011;67539;48.752;12.922;2024-01-06T13:49:55;15.00;;;10.90;;
78288;SDS011;67539;48.752;12.922;2024-01-06T13:52:24;12.77;;;11.00;;
78288;SDS011;67539;48.752;12.922;2024-01-06T13:54:54;12.65;;;10.60;;
78288;SDS011;67539;48.752;12.922;2024-01-06T13:57:22;16.17;;;12.45;;
78288;SDS011;67539;48.752;12.922;2024-01-06T13:59:49;16.48;;;11.75;;
78288;SDS011;67539;48.752;12.922;2024-01-06T14:02:17;17.75;;;13.15;;
78288;SDS011;67539;48.752;12.922;2024-01-06T14:04:46;14.75;;;12.15;;
78288;SDS011;67539;48.752;12.922;2024-01-06T14:07:14;16.63;;;13.23;;
78288;SDS011;67539;48.752;12.922;2024-01-06T14:09:45;15.45;;;12.93;;
78288;SDS011;67539;48.752;12.922;2024-01-06T14:12:15;18.45;;;13.65;;
78288;SDS011;67539;48.752;12.922;2024-01-06T14:14:43;13.00;;;11.63;;
78288;SDS011;67539;48.752;12.922;2024-01-06T14:17:11;17.23;;;14.70;;
78288;SDS011;67539;48.752;12.922;2024-01-06T14:19:40;17.48;;;13.20;;
78288;SDS011;67539;48.752;12.922;2024-01-06T14:22:13;16.25;;;14.48;;